Time,TemperatureF,DewpointF,PressureIn,WindDirection,WindDirectionDegrees,WindSpeedMPH,WindSpeedGustMPH,Humidity,HourlyPrecipIn,Conditions,Clouds,dailyrainin,SoftwareType,DateUTC
2013-01-18 00:02:00,60.0,34.0,30.13,West,277,0.0,-999.0,38,-99.99,,,-99.99,,2013-01-18 08:02:00,
2013-01-18 00:22:00,59.0,35.0,30.13,West,277,1.0,-999.0,40,-99.99,,,-99.99,,2013-01-18 08:22:00,
2013-01-18 00:32:00,59.0,33.0,30.12,WNW,287,3.0,-999.0,37,-99.99,,,-99.99,,2013-01-18 08:32:00,
2013-01-18 00:52:00,59.0,31.0,30.13,WNW,287,0.0,-999.0,35,-99.99,,,-99.99,,2013-01-18 08:52:00,
2013-01-18 01:02:00,59.0,31.0,30.13,WNW,287,1.0,-999.0,35,-99.99,,,-99.99,,2013-01-18 09:02:00,
2013-01-18 01:22:00,59.0,31.0,30.13,WNW,287,1.0,-999.0,35,-99.99,,,-99.99,,2013-01-18 09:22:00,
2013-01-18 01:32:00,59.0,30.0,30.13,WNW,287,1.0,-999.0,33,-99.99,,,-99.99,,2013-01-18 09:32:00,
2013-01-18 01:52:00,58.0,30.0,30.13,WNW,287,1.0,-999.0,34,-99.99,,,-99.99,,2013-01-18 09:52:00,
2013-01-18 02:02:00,59.0,27.0,30.13,WNW,287,1.0,-999.0,29,-99.99,,,-99.99,,2013-01-18 10:02:00,
2013-01-18 02:22:00,61.0,26.0,30.13,WNW,287,0.0,-999.0,26,-99.99,,,-99.99,,2013-01-18 10:22:00,
2013-01-18 02:32:00,61.0,26.0,30.13,WNW,287,0.0,-999.0,26,-99.99,,,-99.99,,2013-01-18 10:32:00,
2013-01-18 02:52:00,61.0,28.0,30.13,WNW,287,0.0,-999.0,28,-99.99,,,-99.99,,2013-01-18 10:52:00,
2013-01-18 03:02:00,60.0,26.0,30.12,WNW,287,0.0,-999.0,27,-99.99,,,-99.99,,2013-01-18 11:02:00,
2013-01-18 03:22:00,59.0,28.0,30.12,WNW,287,0.0,-999.0,30,-99.99,,,-99.99,,2013-01-18 11:22:00,
2013-01-18 03:32:00,57.0,28.0,30.12,WNW,287,0.0,-999.0,33,-99.99,,,-99.99,,2013-01-18 11:32:00,
2013-01-18 03:42:00,57.0,28.0,30.12,WNW,287,0.0,-999.0,33,-99.99,,,-99.99,,2013-01-18 11:42:00,
2013-01-18 03:52:00,57.0,29.0,30.11,WNW,287,0.0,-999.0,34,-99.99,,,-99.99,,2013-01-18 11:52:00,
2013-01-18 04:02:00,57.0,27.0,30.11,WNW,287,0.0,-999.0,32,-99.99,,,-99.99,,2013-01-18 12:02:00,
2013-01-18 04:12:00,57.0,27.0,30.11,WNW,287,0.0,-999.0,32,-99.99,,,-99.99,,2013-01-18 12:12:00,
2013-01-18 04:22:00,58.0,29.0,30.11,WNW,287,1.0,-999.0,33,-99.99,,,-99.99,,2013-01-18 12:22:00,
2013-01-18 04:32:00,59.0,29.0,30.11,WNW,287,1.0,-999.0,32,-99.99,,,-99.99,,2013-01-18 12:32:00,
2013-01-18 04:52:00,59.0,28.0,30.11,WNW,287,1.0,-999.0,31,-99.99,,,-99.99,,2013-01-18 12:52:00,
2013-01-18 05:02:00,59.0,26.0,30.11,WNW,287,0.0,-999.0,28,-99.99,,,-99.99,,2013-01-18 13:02:00,
2013-01-18 05:22:00,60.0,27.0,30.11,WNW,287,1.0,-999.0,28,-99.99,,,-99.99,,2013-01-18 13:22:00,
2013-01-18 05:33:00,60.0,26.0,30.11,WNW,287,1.0,-999.0,27,-99.99,,,-99.99,,2013-01-18 13:33:00,
2013-01-18 05:52:00,60.0,25.0,30.11,WNW,287,0.0,-999.0,26,-99.99,,,-99.99,,2013-01-18 13:52:00,
2013-01-18 06:03:00,60.0,26.0,30.11,WNW,287,2.0,-999.0,27,-99.99,,,-99.99,,2013-01-18 14:03:00,
2013-01-18 06:22:00,60.0,26.0,30.11,WNW,287,2.0,-999.0,27,-99.99,,,-99.99,,2013-01-18 14:22:00,
2013-01-18 06:33:00,60.0,26.0,30.11,WNW,287,2.0,-999.0,27,-99.99,,,-99.99,,2013-01-18 14:33:00,
2013-01-18 06:53:00,60.0,25.0,30.11,WNW,287,0.0,-999.0,26,-99.99,,,-99.99,,2013-01-18 14:53:00,
2013-01-18 07:02:00,59.0,27.0,30.12,WNW,287,0.0,-999.0,29,-99.99,,,-99.99,,2013-01-18 15:02:00,
2013-01-18 07:33:00,58.0,25.0,30.12,WNW,287,1.0,-999.0,28,-99.99,,,-99.99,,2013-01-18 15:33:00,
2013-01-18 07:53:00,60.0,25.0,30.12,WNW,288,1.0,-999.0,26,-99.99,,,-99.99,,2013-01-18 15:53:00,
2013-01-18 08:02:00,61.0,25.0,30.12,WNW,287,0.0,-999.0,25,-99.99,,,-99.99,,2013-01-18 16:02:00,
2013-01-18 08:33:00,63.0,25.0,30.13,WNW,287,0.0,-999.0,23,-99.99,,,-99.99,,2013-01-18 16:33:00,
2013-01-18 08:52:00,63.0,26.0,30.14,WNW,287,0.0,-999.0,24,-99.99,,,-99.99,,2013-01-18 16:52:00,
2013-01-18 09:02:00,63.0,26.0,30.14,WNW,287,0.0,-999.0,24,-99.99,,,-99.99,,2013-01-18 17:02:00,
2013-01-18 09:22:00,63.0,27.0,30.15,WNW,287,0.0,-999.0,25,-99.99,,,-99.99,,2013-01-18 17:22:00,
2013-01-18 09:33:00,63.0,29.0,30.16,WNW,287,0.0,-999.0,27,-99.99,,,-99.99,,2013-01-18 17:33:00,
2013-01-18 09:42:00,63.0,29.0,30.16,WNW,287,0.0,-999.0,27,-99.99,,,-99.99,,2013-01-18 17:42:00,
2013-01-18 09:52:00,64.0,27.0,30.16,WNW,287,0.0,-999.0,25,-99.99,,,-99.99,,2013-01-18 17:52:00,
2013-01-18 10:03:00,65.0,30.0,30.16,WNW,287,0.0,-999.0,27,-99.99,,,-99.99,,2013-01-18 18:03:00,
2013-01-18 10:22:00,64.0,29.0,30.16,WNW,286,1.0,-999.0,27,-99.99,,,-99.99,,2013-01-18 18:22:00,
2013-01-18 10:33:00,63.0,31.0,30.17,WNW,285,1.0,-999.0,30,-99.99,,,-99.99,,2013-01-18 18:33:00,
2013-01-18 10:43:00,63.0,31.0,30.17,WNW,285,1.0,-999.0,30,-99.99,,,-99.99,,2013-01-18 18:43:00,
2013-01-18 10:52:00,64.0,32.0,30.17,WNW,285,1.0,-999.0,30,-99.99,,,-99.99,,2013-01-18 18:52:00,
2013-01-18 11:02:00,64.0,33.0,30.17,West,281,1.0,-999.0,31,-99.99,,,-99.99,,2013-01-18 19:02:00,
2013-01-18 11:22:00,64.0,34.0,30.16,West,276,1.0,-999.0,32,-99.99,,,-99.99,,2013-01-18 19:22:00,
2013-01-18 11:33:00,64.0,31.0,30.15,West,273,2.0,-999.0,29,-99.99,,,-99.99,,2013-01-18 19:33:00,
2013-01-18 11:42:00,64.0,31.0,30.15,West,273,2.0,-999.0,29,-99.99,,,-99.99,,2013-01-18 19:42:00,
2013-01-18 11:52:00,64.0,37.0,30.15,West,271,1.0,-999.0,37,-99.99,,,-99.99,,2013-01-18 19:52:00,
2013-01-18 12:02:00,65.0,38.0,30.14,West,261,2.0,-999.0,37,-99.99,,,-99.99,,2013-01-18 20:02:00,
2013-01-18 12:12:00,65.0,38.0,30.14,West,261,2.0,-999.0,37,-99.99,,,-99.99,,2013-01-18 20:12:00,
2013-01-18 12:22:00,65.0,34.0,30.14,WSW,258,1.0,-999.0,32,-99.99,,,-99.99,,2013-01-18 20:22:00,
2013-01-18 12:33:00,64.0,35.0,30.13,SW,234,2.0,-999.0,34,-99.99,,,-99.99,,2013-01-18 20:33:00,
2013-01-18 12:42:00,64.0,35.0,30.13,SW,234,2.0,-999.0,34,-99.99,,,-99.99,,2013-01-18 20:42:00,
2013-01-18 12:52:00,65.0,36.0,30.12,SW,233,2.0,-999.0,34,-99.99,,,-99.99,,2013-01-18 20:52:00,
2013-01-18 13:02:00,65.0,33.0,30.11,SW,231,3.0,-999.0,30,-99.99,,,-99.99,,2013-01-18 21:02:00,
2013-01-18 13:12:00,65.0,33.0,30.11,SW,231,3.0,-999.0,30,-99.99,,,-99.99,,2013-01-18 21:12:00,
2013-01-18 13:22:00,64.0,27.0,30.11,SW,229,3.0,-999.0,25,-99.99,,,-99.99,,2013-01-18 21:22:00,
2013-01-18 13:33:00,65.0,31.0,30.11,SW,227,2.0,-999.0,28,-99.99,,,-99.99,,2013-01-18 21:33:00,
2013-01-18 13:42:00,65.0,31.0,30.11,SW,227,2.0,-999.0,28,-99.99,,,-99.99,,2013-01-18 21:42:00,
2013-01-18 13:52:00,66.0,34.0,30.10,SW,226,2.0,-999.0,31,-99.99,,,-99.99,,2013-01-18 21:52:00,
2013-01-18 14:02:00,66.0,38.0,30.10,SW,233,3.0,-999.0,35,-99.99,,,-99.99,,2013-01-18 22:02:00,
2013-01-18 14:12:00,66.0,38.0,30.10,SW,233,3.0,-999.0,35,-99.99,,,-99.99,,2013-01-18 22:12:00,
2013-01-18 14:22:00,68.0,35.0,30.10,SW,236,2.0,-999.0,30,-99.99,,,-99.99,,2013-01-18 22:22:00,
2013-01-18 14:32:00,66.0,31.0,30.10,WSW,247,4.0,-999.0,27,-99.99,,,-99.99,,2013-01-18 22:32:00,
2013-01-18 14:42:00,66.0,31.0,30.10,WSW,247,4.0,-999.0,27,-99.99,,,-99.99,,2013-01-18 22:42:00,
2013-01-18 14:52:00,68.0,34.0,30.09,WSW,247,1.0,-999.0,28,-99.99,,,-99.99,,2013-01-18 22:52:00,
2013-01-18 15:02:00,68.0,34.0,30.09,SW,236,2.0,-999.0,28,-99.99,,,-99.99,,2013-01-18 23:02:00,
2013-01-18 15:12:00,68.0,34.0,30.09,SW,236,2.0,-999.0,28,-99.99,,,-99.99,,2013-01-18 23:12:00,
2013-01-18 15:22:00,67.0,37.0,30.09,SW,235,2.0,-999.0,33,-99.99,,,-99.99,,2013-01-18 23:22:00,
2013-01-18 15:32:00,67.0,32.0,30.09,SW,234,2.0,-999.0,27,-99.99,,,-99.99,,2013-01-18 23:32:00,
2013-01-18 15:42:00,67.0,32.0,30.09,SW,234,2.0,-999.0,27,-99.99,,,-99.99,,2013-01-18 23:42:00,
2013-01-18 15:52:00,68.0,35.0,30.09,SW,233,1.0,-999.0,29,-99.99,,,-99.99,,2013-01-18 23:52:00,
2013-01-18 16:02:00,69.0,35.0,30.08,SW,233,1.0,-999.0,28,-99.99,,,-99.99,,2013-01-19 00:02:00,
2013-01-18 16:12:00,69.0,35.0,30.08,SW,233,1.0,-999.0,28,-99.99,,,-99.99,,2013-01-19 00:12:00,
2013-01-18 16:22:00,68.0,38.0,30.08,SW,233,1.0,-999.0,33,-99.99,,,-99.99,,2013-01-19 00:22:00,
2013-01-18 16:32:00,69.0,33.0,30.09,SW,233,1.0,-999.0,26,-99.99,,,-99.99,,2013-01-19 00:32:00,
2013-01-18 16:42:00,69.0,33.0,30.09,SW,233,1.0,-999.0,26,-99.99,,,-99.99,,2013-01-19 00:42:00,
2013-01-18 16:52:00,69.0,30.0,30.09,SW,233,1.0,-999.0,23,-99.99,,,-99.99,,2013-01-19 00:52:00,
2013-01-18 17:02:00,70.0,28.0,30.09,SW,233,0.0,-999.0,21,-99.99,,,-99.99,,2013-01-19 01:02:00,
2013-01-18 17:12:00,70.0,28.0,30.09,SW,233,0.0,-999.0,21,-99.99,,,-99.99,,2013-01-19 01:12:00,
2013-01-18 17:22:00,71.0,31.0,30.09,SW,234,0.0,-999.0,23,-99.99,,,-99.99,,2013-01-19 01:22:00,
2013-01-18 17:52:00,66.0,30.0,30.09,West,267,2.0,-999.0,26,-99.99,,,-99.99,,2013-01-19 01:52:00,
2013-01-18 18:02:00,64.0,30.0,30.09,WNW,286,3.0,-999.0,28,-99.99,,,-99.99,,2013-01-19 02:02:00,
2013-01-18 18:12:00,64.0,30.0,30.09,WNW,286,3.0,-999.0,28,-99.99,,,-99.99,,2013-01-19 02:12:00,
2013-01-18 18:22:00,64.0,30.0,30.09,WNW,286,0.0,-999.0,28,-99.99,,,-99.99,,2013-01-19 02:22:00,
2013-01-18 18:32:00,65.0,31.0,30.09,WNW,286,0.0,-999.0,28,-99.99,,,-99.99,,2013-01-19 02:32:00,
2013-01-18 18:52:00,64.0,28.0,30.09,WNW,286,0.0,-999.0,26,-99.99,,,-99.99,,2013-01-19 02:52:00,
2013-01-18 19:02:00,63.0,27.0,30.09,WNW,286,2.0,-999.0,25,-99.99,,,-99.99,,2013-01-19 03:02:00,
2013-01-18 19:22:00,63.0,28.0,30.09,WNW,287,0.0,-999.0,26,-99.99,,,-99.99,,2013-01-19 03:22:00,
2013-01-18 19:32:00,63.0,27.0,30.09,WNW,287,1.0,-999.0,25,-99.99,,,-99.99,,2013-01-19 03:32:00,
2013-01-18 19:52:00,64.0,28.0,30.09,WNW,287,2.0,-999.0,26,-99.99,,,-99.99,,2013-01-19 03:52:00,
2013-01-18 20:02:00,64.0,27.0,30.10,WNW,287,0.0,-999.0,25,-99.99,,,-99.99,,2013-01-19 04:02:00,
2013-01-18 20:22:00,65.0,27.0,30.10,WNW,287,2.0,-999.0,24,-99.99,,,-99.99,,2013-01-19 04:22:00,
2013-01-18 20:32:00,66.0,28.0,30.10,WNW,287,1.0,-999.0,24,-99.99,,,-99.99,,2013-01-19 04:32:00,
2013-01-18 20:52:00,66.0,27.0,30.10,WNW,287,0.0,-999.0,23,-99.99,,,-99.99,,2013-01-19 04:52:00,
2013-01-18 21:03:00,65.0,26.0,30.10,WNW,287,0.0,-999.0,23,-99.99,,,-99.99,,2013-01-19 05:03:00,
2013-01-18 21:32:00,66.0,25.0,30.10,WNW,287,0.0,-999.0,21,-99.99,,,-99.99,,2013-01-19 05:32:00,
2013-01-18 21:52:00,66.0,25.0,30.10,WNW,287,0.0,-999.0,21,-99.99,,,-99.99,,2013-01-19 05:52:00,
2013-01-18 22:02:00,66.0,25.0,30.10,WNW,287,1.0,-999.0,21,-99.99,,,-99.99,,2013-01-19 06:02:00,
2013-01-18 22:22:00,66.0,25.0,30.11,WNW,287,0.0,-999.0,21,-99.99,,,-99.99,,2013-01-19 06:22:00,
2013-01-18 22:32:00,65.0,25.0,30.11,WNW,287,2.0,-999.0,22,-99.99,,,-99.99,,2013-01-19 06:32:00,
2013-01-18 22:52:00,66.0,26.0,30.11,WNW,287,0.0,-999.0,22,-99.99,,,-99.99,,2013-01-19 06:52:00,
2013-01-18 23:02:00,66.0,25.0,30.11,WNW,288,0.0,-999.0,21,-99.99,,,-99.99,,2013-01-19 07:02:00,
2013-01-18 23:22:00,66.0,25.0,30.11,WNW,287,0.0,-999.0,21,-99.99,,,-99.99,,2013-01-19 07:22:00,
2013-01-18 23:32:00,65.0,24.0,30.11,WNW,288,1.0,-999.0,21,-99.99,,,-99.99,,2013-01-19 07:32:00,
2013-01-18 23:52:00,64.0,23.0,30.11,WNW,287,2.0,-999.0,21,-99.99,,,-99.99,,2013-01-19 07:52:00,